Weather History for KAFP - March, 2014

Change the Weather History Date:

Thursday, March 27, 2014

  Actual Average (KCLT) Record (KCLT)
Temperature  
Mean Temperature 42 °F 54 °F  
Max Temperature 62 °F 67 °F 85 °F (1950)
Min Temperature 21 °F 42 °F 19 °F (1955)
Degree Days  
Heating Degree Days 24 11  
Month to date heating degree days 392  
Since 1 July heating degree days 3091  
Cooling Degree Days 0 0  
Month to date cooling degree days 0  
Year to date cooling degree days 0  
Moisture  
Dew Point 23 °F    
Average Humidity 52    
Maximum Humidity 89    
Minimum Humidity 17    
Precipitation  
Precipitation 0.00 in 0.12 in 1.22 in (1891)
Month to date precipitation 3.51  
Year to date precipitation 10.24  
Snow  
Snow 0.00 in 0.10 in 0.40 in (1947)
Month to date snowfall 0.6  
Since 1 July snowfall 4.3  
Snow Depth -    
Sea Level Pressure  
Sea Level Pressure 30.36 in    
Wind  
Wind Speed 3 mph (SSE)    
Max Wind Speed 16 mph    
Max Gust Speed 20 mph    
Visibility 10 miles    
Events      
T = Trace of Precipitation, MM = Missing Value Source: NWS Daily Summary

Daily Weather History Graph

Daily Weather History Graph

Search for Another Location

Airport or City:

Trip Planner

Search our weather history database for the weather conditions in past years. The results will help you decide how hot, cold, wet, or windy it might be!

Date:

Astronomy

Mar. 27, 2014 Rise Set
Actual Time 7:14 AM EDT 7:37 PM EDT
Civil Twilight 6:48 AM EDT 8:03 PM EDT
Nautical Twilight 6:19 AM EDT 8:32 PM EDT
Astronomical Twilight 5:48 AM EDT 9:03 PM EDT
Moon 4:56 AM EDT (3/27) 4:29 PM EDT (3/27)
Length of Visible Light 13h 14m
Length of Day
12h 23m
Waning Crescent, 13% of the Moon is Illuminated
Mar 27
Waning Crescent
Mar 30
New
Apr 7
First Quarter
Apr 15
Full
Apr 22
Last Quarter

Hourly Weather History & Observations

Time (EDT) Temp. Dew Point Humidity Pressure Visibility Wind Dir Wind Speed Gust Speed Precip Events Conditions
12:15 AM 27.5 °F 21.9 °F 80% 30.33 in 10.0 mi Calm Calm - N/A   Clear
12:35 AM 27.7 °F 21.9 °F 79% 30.33 in 10.0 mi Calm Calm - N/A   Clear
12:55 AM 28.4 °F 23.2 °F 81% 30.34 in 10.0 mi Calm Calm - N/A   Clear
1:15 AM 27.3 °F 22.1 °F 81% 30.34 in 10.0 mi Calm Calm - N/A   Clear
1:35 AM 27.1 °F 22.1 °F 81% 30.34 in 10.0 mi Calm Calm - N/A   Clear
2:15 AM 26.4 °F 21.2 °F 81% 30.34 in 10.0 mi Calm Calm - N/A   Clear
2:35 AM 26.2 °F 21.2 °F 81% 30.35 in 10.0 mi Calm Calm - N/A   Clear
2:55 AM 24.8 °F 20.3 °F 83% 30.35 in 10.0 mi Calm Calm - N/A   Clear
3:15 AM 24.6 °F 21.0 °F 86% 30.35 in 10.0 mi Calm Calm - N/A   Clear
3:35 AM 26.4 °F 22.5 °F 85% 30.35 in 10.0 mi Calm Calm - N/A   Clear
3:55 AM 25.7 °F 22.1 °F 86% 30.36 in 10.0 mi Calm Calm - N/A   Clear
4:15 AM 24.6 °F 20.3 °F 84% 30.36 in 10.0 mi Calm Calm - N/A   Clear
4:35 AM 23.7 °F 20.3 °F 87% 30.37 in 10.0 mi Calm Calm - N/A   Clear
4:55 AM 23.9 °F 20.8 °F 88% 30.37 in 10.0 mi Calm Calm - N/A   Clear
5:15 AM 23.9 °F 20.5 °F 87% 30.38 in 10.0 mi Calm Calm - N/A   Clear
5:35 AM 23.2 °F 19.6 °F 86% 30.38 in 10.0 mi Calm Calm - N/A   Clear
5:55 AM 22.3 °F 19.6 °F 89% 30.39 in 10.0 mi Calm Calm - N/A   Clear
6:15 AM 24.3 °F 21.6 °F 89% 30.39 in 10.0 mi Calm Calm - N/A   Clear
6:35 AM 22.8 °F 19.4 °F 87% 30.38 in 10.0 mi Calm Calm - N/A   Clear
6:55 AM 21.9 °F 18.9 °F 88% 30.39 in 10.0 mi Calm Calm - N/A   Clear
7:15 AM 21.9 °F 18.9 °F 88% 30.39 in 10.0 mi Calm Calm - N/A   Clear
7:35 AM 23.2 °F 19.6 °F 86% 30.40 in 10.0 mi Calm Calm - N/A   Clear
7:55 AM 26.2 °F 22.5 °F 86% 30.43 in 10.0 mi Calm Calm - N/A   Clear
8:15 AM 28.4 °F 24.3 °F 84% 30.43 in 10.0 mi Calm Calm - N/A   Clear
8:35 AM 29.5 °F 24.3 °F 81% 30.44 in 10.0 mi Calm Calm - N/A   Clear
8:55 AM 31.1 °F 24.6 °F 77% 30.45 in 10.0 mi Calm Calm - N/A   Clear
9:15 AM 34.0 °F 25.9 °F 72% 30.46 in 10.0 mi Calm Calm - N/A   Clear
9:35 AM 38.1 °F 25.5 °F 61% 30.45 in 10.0 mi Calm Calm - N/A   Clear
9:55 AM 41.9 °F 23.7 °F 49% 30.44 in 10.0 mi Calm Calm - N/A   Clear
10:15 AM 46.9 °F 16.0 °F 29% 30.44 in 10.0 mi SSE 10.4 mph - N/A   Clear
10:35 AM 48.9 °F 15.4 °F 26% 30.44 in 10.0 mi SSE 11.5 mph - N/A   Clear
10:55 AM 50.0 °F 15.4 °F 25% 30.46 in 10.0 mi SSE 9.2 mph - N/A   Clear
11:15 AM 50.9 °F 13.3 °F 22% 30.46 in 10.0 mi South 10.4 mph - N/A   Clear
11:35 AM 51.8 °F 14.7 °F 23% 30.46 in 10.0 mi SE 11.5 mph - N/A   Clear
11:55 AM 53.6 °F 15.6 °F 22% 30.46 in 10.0 mi SSE 10.4 mph - N/A   Clear
12:15 PM 53.1 °F 15.8 °F 23% 30.45 in 10.0 mi SE 6.9 mph - N/A   Clear
12:35 PM 54.0 °F 16.5 °F 23% 30.44 in 10.0 mi SSE 11.5 mph - N/A   Clear
12:55 PM 55.0 °F 18.3 °F 24% 30.44 in 10.0 mi SE 10.4 mph - N/A   Clear
1:15 PM 55.9 °F 17.8 °F 22% 30.42 in 10.0 mi South 11.5 mph - N/A   Clear
1:35 PM 57.4 °F 18.3 °F 22% 30.41 in 10.0 mi SSE 13.8 mph 17.3 mph N/A   Clear
1:55 PM 57.9 °F 17.6 °F 21% 30.39 in 10.0 mi South 6.9 mph - N/A   Clear
2:15 PM 58.5 °F 18.0 °F 21% 30.39 in 10.0 mi SSE 8.1 mph - N/A   Clear
2:35 PM 59.2 °F 18.9 °F 21% 30.38 in 10.0 mi SSE 11.5 mph 16.1 mph N/A   Clear
2:55 PM 59.4 °F 16.9 °F 19% 30.36 in 10.0 mi SE 6.9 mph - N/A   Clear
3:15 PM 61.0 °F 18.1 °F 19% 30.35 in 10.0 mi South 9.2 mph - N/A   Clear
3:35 PM 61.0 °F 18.1 °F 19% 30.34 in 10.0 mi South 11.5 mph 19.6 mph N/A   Clear
3:55 PM 61.2 °F 17.6 °F 18% 30.33 in 10.0 mi SSE 15.0 mph 19.6 mph N/A   Clear
4:15 PM 61.3 °F 17.2 °F 18% 30.33 in 10.0 mi SSE 16.1 mph 19.6 mph N/A   Clear
4:35 PM 61.7 °F 18.0 °F 18% 30.32 in 10.0 mi South 8.1 mph - N/A   Clear
4:55 PM 61.7 °F 16.5 °F 17% 30.31 in 10.0 mi SSE 9.2 mph - N/A   Clear
5:15 PM 62.2 °F 16.7 °F 17% 30.32 in 10.0 mi South 6.9 mph 16.1 mph N/A   Clear
5:35 PM 62.4 °F 18.1 °F 18% 30.31 in 10.0 mi SSE 13.8 mph 17.3 mph N/A   Clear
5:55 PM 62.1 °F 17.6 °F 18% 30.31 in 10.0 mi South 8.1 mph - N/A   Clear
6:15 PM 61.7 °F 20.5 °F 20% 30.30 in 10.0 mi South 8.1 mph - N/A   Clear
6:35 PM 61.3 °F 21.9 °F 22% 30.29 in 10.0 mi South 8.1 mph - N/A   Clear
6:55 PM 60.8 °F 23.9 °F 24% 30.29 in 10.0 mi South 8.1 mph - N/A   Clear
7:15 PM 59.2 °F 26.1 °F 28% 30.27 in 10.0 mi SSE 8.1 mph - N/A   Clear
7:35 PM 57.0 °F 28.4 °F 34% 30.27 in 10.0 mi SSE 5.8 mph - N/A   Clear
8:15 PM 50.9 °F 31.8 °F 48% 30.27 in 10.0 mi SE 4.6 mph - N/A   Clear
8:55 PM 52.0 °F 32.2 °F 47% 30.28 in 10.0 mi SE 8.1 mph - N/A   Clear
9:15 PM 53.8 °F 34.7 °F 48% 30.30 in 10.0 mi SSE 9.2 mph - N/A   Clear
9:35 PM 54.3 °F 36.3 °F 51% 30.31 in 10.0 mi SE 11.5 mph 16.1 mph N/A   Clear
9:55 PM 54.3 °F 37.0 °F 52% 30.31 in 10.0 mi SSE 9.2 mph - N/A   Clear
10:15 PM 53.1 °F 37.8 °F 56% 30.31 in 10.0 mi SSE 8.1 mph - N/A   Clear
10:35 PM 52.9 °F 38.3 °F 58% 30.31 in 10.0 mi SSE 6.9 mph - N/A   Clear
10:55 PM 51.8 °F 38.7 °F 61% 30.30 in 10.0 mi SE 8.1 mph - N/A   Clear
11:15 PM 50.9 °F 39.0 °F 64% 30.29 in 10.0 mi SE 8.1 mph - N/A   Clear
11:35 PM 50.9 °F 39.2 °F 64% 30.29 in 10.0 mi SSE 9.2 mph - N/A   Clear
11:55 PM 50.5 °F 39.2 °F 65% 30.29 in 10.0 mi SSE 8.1 mph - N/A   Clear